首页
METAR-TAF:

METAR-TAF

机场 :

日内瓦国际机场

日内瓦, 瑞士

纬度: 46-15N, 经度: 006-08E, 海拔: 420米

当前天气观测

该预报发布于25分钟前的06:50 UTC
风速2节,风向多变
温度 12°C
湿度 94%
气压 1007 hPa
能见度10公里或以上
少量云层高于1500英尺
多云层高于3600英尺
多云层高于6000英尺
附近有阵雨

METAR: LSGG 200650Z VRB02KT 9999 VCSH FEW015 BKN036 BKN060 12/11 Q1007 NOSIG

时间: 09:15 (07:15 UTC)

预报

该预报发布于1小时和50分钟前的05:25 UTC
预报有效从20日的 06点(UTC)到 21日的 12点(UTC)
风速5节,风向南转西南
能见度10公里或以上
少量云层高于1500英尺
多云层高于4000英尺
几率 30% :
短暂存在
从 20日的 13点(UTC)到 20日的 18点(UTC)
散云层高于4000英尺, 塔状积云.
阵雨

TAF: LSGG 200525Z 2006/2112 21005KT 9999 FEW015 BKN040 TX16/2015Z TN12/2006Z TN10/2105Z PROB30 TEMPO 2013/2018 SHRA SCT040TCU

超过4000个机场的气象观测和天气预报(METAR&TAF报告)。

可查询的气象台以黄色和红色小点在地图上表示。

将鼠标移到小点上方,可查看气象台名称。

然后点击查看天气观测和预报。

如需切换地图:点击带黑十字的绿色按钮放大地图;点击带横线的绿色按钮缩小地图;或者点击绿色箭头查看邻近地区的地图。


METAR-TAF: